createdAt,value
2018-12-16T00:00:01.289Z,99552.98
2018-12-16T00:06:04.636Z,99539.68
2018-12-16T00:12:07.986Z,99540.64
2018-12-16T00:18:11.329Z,99535.67
2018-12-16T00:24:14.671Z,99526.21
2018-12-16T00:30:18.050Z,99528.99
2018-12-16T00:36:21.415Z,99515.41
2018-12-16T00:42:25.690Z,99508.23
2018-12-16T00:48:29.088Z,99499.34
2018-12-16T00:54:32.451Z,99489.91
2018-12-16T01:00:35.800Z,99482.42
2018-12-16T01:06:39.169Z,99473.09
2018-12-16T01:12:42.522Z,99481.27
2018-12-16T01:18:45.891Z,99486.33
2018-12-16T01:25:05.409Z,99482.56
2018-12-16T01:31:08.767Z,99495.92
2018-12-16T01:37:12.109Z,99480.28
2018-12-16T01:43:15.461Z,99476.11
2018-12-16T01:49:18.875Z,99466.82
2018-12-16T01:55:22.215Z,99449.47
2018-12-16T02:01:25.655Z,99438.02
2018-12-16T02:07:28.980Z,99400.59
2018-12-16T02:13:32.347Z,99385.73
2018-12-16T02:19:35.683Z,99380.04
2018-12-16T02:25:39.017Z,99362.95
2018-12-16T02:31:42.380Z,99358.73
2018-12-16T02:37:45.722Z,99353.08
2018-12-16T02:43:49.095Z,99353.23
2018-12-16T02:49:52.438Z,99360.97
2018-12-16T02:55:55.797Z,99369.29
2018-12-16T03:01:59.143Z,99362.02
2018-12-16T03:08:02.490Z,99344.41
2018-12-16T03:14:05.852Z,99335.86
2018-12-16T03:20:09.369Z,99321.52
2018-12-16T03:26:12.732Z,99305.48
2018-12-16T03:32:16.083Z,99311.41
2018-12-16T03:38:19.454Z,99307.00
2018-12-16T03:44:22.913Z,99295.03
2018-12-16T03:50:26.265Z,99281.73
2018-12-16T03:56:29.601Z,99278.38
2018-12-16T04:02:32.934Z,99257.84
2018-12-16T04:08:36.273Z,99239.64
2018-12-16T04:14:41.302Z,99234.64
2018-12-16T04:20:44.874Z,99214.32
2018-12-16T04:26:48.276Z,99195.05
2018-12-16T04:32:51.623Z,99183.91
2018-12-16T04:38:54.959Z,99183.21
2018-12-16T04:44:58.311Z,99173.70
2018-12-16T04:51:01.667Z,99155.53
2018-12-16T04:57:05.017Z,99155.67
2018-12-16T05:03:08.365Z,99132.37
2018-12-16T05:09:11.705Z,99121.34
2018-12-16T05:15:15.064Z,99108.47
2018-12-16T05:21:19.173Z,99114.86
2018-12-16T05:27:22.526Z,99121.03
2018-12-16T05:33:25.862Z,99108.45
2018-12-16T05:39:29.203Z,99112.02
2018-12-16T05:45:32.557Z,99111.51
2018-12-16T05:51:35.920Z,99124.95
2018-12-16T05:57:39.250Z,99127.78
2018-12-16T06:03:42.623Z,99119.08
2018-12-16T06:09:45.957Z,99113.94
2018-12-16T06:15:49.312Z,99114.66
2018-12-16T06:21:52.666Z,99115.17
2018-12-16T06:27:56.011Z,99119.55
2018-12-16T06:33:59.351Z,99109.22
2018-12-16T06:40:02.702Z,99103.35
2018-12-16T06:46:06.074Z,99090.94
2018-12-16T06:52:09.430Z,99084.34
2018-12-16T06:58:12.863Z,99077.11
2018-12-16T07:04:16.236Z,99077.37
2018-12-16T07:10:19.929Z,99063.12
2018-12-16T07:16:23.255Z,99062.41
2018-12-16T07:22:27.440Z,99059.62
2018-12-16T07:28:30.796Z,99071.84
2018-12-16T07:34:34.133Z,99079.52
2018-12-16T07:40:37.455Z,99073.81
2018-12-16T07:46:40.795Z,99076.73
2018-12-16T07:52:45.262Z,99065.94
2018-12-16T07:58:49.270Z,99060.03
2018-12-16T08:04:52.625Z,99038.78
2018-12-16T08:10:55.957Z,99053.59
2018-12-16T08:16:59.305Z,99070.56
2018-12-16T08:23:02.648Z,99079.89
2018-12-16T08:29:05.991Z,99073.11
2018-12-16T08:35:09.336Z,99067.28
2018-12-16T08:41:12.656Z,99070.63
2018-12-16T08:47:15.990Z,99060.98
2018-12-16T08:53:19.327Z,99079.78
2018-12-16T08:59:22.658Z,99088.58
2018-12-16T09:05:26.008Z,99087.95
2018-12-16T09:11:29.366Z,99078.47
2018-12-16T09:17:32.692Z,99083.66
2018-12-16T09:23:36.025Z,99071.85
2018-12-16T09:29:39.461Z,99065.02
2018-12-16T09:35:42.781Z,99062.94
2018-12-16T09:41:46.107Z,99077.61
2018-12-16T09:47:49.428Z,99075.27
2018-12-16T09:53:52.835Z,99062.94
2018-12-16T09:59:56.151Z,99054.69
2018-12-16T10:05:59.562Z,99050.59
2018-12-16T10:12:02.892Z,99040.56
2018-12-16T10:18:06.229Z,99033.74
2018-12-16T10:24:09.560Z,99032.81
2018-12-16T10:30:12.888Z,99033.27
2018-12-16T10:36:16.222Z,99025.52
2018-12-16T10:42:19.589Z,99007.78
2018-12-16T10:48:22.930Z,99009.48
2018-12-16T10:54:26.276Z,99002.55
2018-12-16T11:00:35.124Z,98985.63
2018-12-16T11:06:38.451Z,98989.19
2018-12-16T11:12:42.257Z,98984.52
2018-12-16T11:18:45.592Z,98992.23
2018-12-16T11:24:48.942Z,98988.27
2018-12-16T11:30:52.272Z,98996.45
2018-12-16T11:36:55.605Z,98979.73
2018-12-16T11:42:58.922Z,98971.63
2018-12-16T11:49:02.247Z,98964.82
2018-12-16T11:55:12.514Z,98964.89
2018-12-16T12:01:11.023Z,98961.91
2018-12-16T12:07:14.348Z,98962.18
2018-12-16T12:13:17.683Z,98949.11
2018-12-16T12:19:21.087Z,98945.38
2018-12-16T12:25:24.421Z,98950.23
2018-12-16T12:31:27.764Z,98957.03
2018-12-16T12:37:31.099Z,98955.05
2018-12-16T12:43:34.419Z,98945.60
2018-12-16T12:49:44.792Z,98951.70
2018-12-16T12:55:43.167Z,98953.08
2018-12-16T13:01:46.491Z,98948.67
2018-12-16T13:07:49.815Z,98933.73
2018-12-16T13:13:53.138Z,98936.08
2018-12-16T13:19:56.467Z,98937.69
2018-12-16T13:26:02.665Z,98938.80
2018-12-16T13:32:05.998Z,98937.91
2018-12-16T13:38:09.329Z,98948.78
2018-12-16T13:44:12.667Z,98949.59
2018-12-16T13:50:15.997Z,98949.94
2018-12-16T13:56:19.324Z,98938.95
2018-12-16T14:02:22.650Z,98949.31
2018-12-16T14:08:25.988Z,98950.47
2018-12-16T14:14:29.319Z,98955.03
2018-12-16T14:20:32.639Z,98956.80
2018-12-16T14:26:35.967Z,98956.84
2018-12-16T14:32:39.294Z,98957.77
2018-12-16T14:38:42.631Z,98958.41
2018-12-16T14:44:45.959Z,98958.88
2018-12-16T14:50:49.276Z,98962.42
2018-12-16T14:56:52.603Z,98957.58
2018-12-16T15:02:55.937Z,98975.23
2018-12-16T15:08:59.267Z,98973.42
2018-12-16T15:15:02.679Z,98974.36
2018-12-16T15:21:06.006Z,98976.86
2018-12-16T15:27:09.346Z,98978.11
2018-12-16T15:33:12.688Z,98980.74
2018-12-16T15:39:16.018Z,98986.28
2018-12-16T15:45:19.337Z,98989.53
2018-12-16T15:51:22.676Z,98990.64
2018-12-16T15:57:26.019Z,98991.47
2018-12-16T16:03:29.453Z,98994.41
2018-12-16T16:09:32.781Z,99002.91
2018-12-16T16:15:36.233Z,99006.19
2018-12-16T16:21:39.559Z,99017.86
2018-12-16T16:27:42.899Z,99019.50
2018-12-16T16:33:46.239Z,99019.89
2018-12-16T16:39:49.576Z,99033.11
2018-12-16T16:45:52.966Z,99027.75
2018-12-16T16:51:56.295Z,99029.00
2018-12-16T16:57:59.625Z,99035.59
2018-12-16T17:04:03.998Z,99038.77
2018-12-16T17:10:07.703Z,99037.96
2018-12-16T17:16:11.509Z,99054.78
2018-12-16T17:22:15.204Z,99059.24
2018-12-16T17:28:18.604Z,99065.55
2018-12-16T17:34:22.053Z,99061.44
2018-12-16T17:40:25.444Z,99056.50
2018-12-16T17:46:28.772Z,99064.36
2018-12-16T17:52:32.117Z,99067.05
2018-12-16T17:58:35.440Z,99060.26
2018-12-16T18:04:38.765Z,99080.19
2018-12-16T18:10:42.093Z,99087.05
2018-12-16T18:16:45.416Z,99090.84
2018-12-16T18:22:48.784Z,99080.73
2018-12-16T18:28:52.115Z,99093.09
2018-12-16T18:34:55.513Z,99094.87
2018-12-16T18:40:58.960Z,99104.73
2018-12-16T18:47:02.318Z,99117.06
2018-12-16T18:53:05.647Z,99128.75
2018-12-16T18:59:09.009Z,99119.25
2018-12-16T19:05:12.379Z,99119.88
2018-12-16T19:11:15.800Z,99119.23
2018-12-16T19:17:19.207Z,99133.81
2018-12-16T19:23:22.543Z,99125.77
2018-12-16T19:29:25.885Z,99128.89
2018-12-16T19:35:29.231Z,99120.55
2018-12-16T19:41:32.566Z,99121.94
2018-12-16T19:47:35.905Z,99133.88
2018-12-16T19:53:39.247Z,99143.38
2018-12-16T19:59:42.592Z,99143.67
2018-12-16T20:05:51.394Z,99142.08
2018-12-16T20:11:54.764Z,99161.85
2018-12-16T20:17:58.114Z,99159.86
2018-12-16T20:24:01.449Z,99150.31
2018-12-16T20:30:07.244Z,99154.88
2018-12-16T20:36:10.605Z,99152.22
2018-12-16T20:42:13.956Z,99161.08
2018-12-16T20:48:17.284Z,99155.88
2018-12-16T20:54:20.703Z,99159.62
2018-12-16T21:00:24.144Z,99164.78
2018-12-16T21:06:27.498Z,99175.74
2018-12-16T21:12:36.484Z,99188.69
2018-12-16T21:18:40.009Z,99190.85
2018-12-16T21:24:43.335Z,99202.48
2018-12-16T21:30:46.680Z,99208.50
2018-12-16T21:36:50.027Z,99216.54
2018-12-16T21:42:53.721Z,99213.83
2018-12-16T21:48:57.044Z,99202.95
2018-12-16T21:55:00.388Z,99198.98
2018-12-16T22:01:03.739Z,99222.06
2018-12-16T22:07:07.056Z,99240.35
2018-12-16T22:13:10.386Z,99255.30
2018-12-16T22:19:13.724Z,99256.02
2018-12-16T22:25:17.069Z,99252.05
2018-12-16T22:31:20.428Z,99254.54
2018-12-16T22:37:23.796Z,99262.73
2018-12-16T22:43:27.171Z,99267.55
2018-12-16T22:49:30.751Z,99274.27
2018-12-16T22:55:34.104Z,99274.24
2018-12-16T23:01:37.447Z,99263.38
2018-12-16T23:07:40.791Z,99279.06
2018-12-16T23:13:44.131Z,99278.38
2018-12-16T23:26:09.407Z,99298.09
2018-12-16T23:32:12.827Z,99290.03
2018-12-16T23:38:16.151Z,99296.30
2018-12-16T23:44:19.593Z,99290.94
2018-12-16T23:50:23.089Z,99290.73
2018-12-16T23:56:26.424Z,99295.81
